createdAt,value
2022-10-23T00:01:51.287Z,71.57
2022-10-23T00:03:59.138Z,68.85
2022-10-23T00:06:04.416Z,87.07
2022-10-23T00:08:05.920Z,60.65
2022-10-23T00:10:07.827Z,69.75
2022-10-23T00:12:09.376Z,72.72
2022-10-23T00:14:11.048Z,74.82
2022-10-23T00:16:12.901Z,62.13
2022-10-23T00:18:14.376Z,63.38
2022-10-23T00:20:17.064Z,79.90
2022-10-23T00:22:18.533Z,53.90
2022-10-23T00:24:20.008Z,57.17
2022-10-23T00:26:21.572Z,56.40
2022-10-23T00:28:23.145Z,56.08
2022-10-23T00:30:24.606Z,64.30
2022-10-23T00:32:26.834Z,64.68
2022-10-23T00:34:28.490Z,58.95
2022-10-23T00:36:30.098Z,59.03
2022-10-23T00:38:31.620Z,56.85
2022-10-23T00:40:33.199Z,62.38
2022-10-23T00:42:34.709Z,56.33
2022-10-23T00:44:36.149Z,52.47
2022-10-23T00:46:39.239Z,52.90
2022-10-23T00:48:40.778Z,48.47
2022-10-23T00:50:42.637Z,53.80
2022-10-23T00:52:48.717Z,48.05
2022-10-23T00:54:50.196Z,46.17
2022-10-23T00:56:54.769Z,45.75
2022-10-23T00:58:56.216Z,44.78
2022-10-23T01:00:57.796Z,47.80
2022-10-23T01:02:59.893Z,42.75
2022-10-23T01:05:01.558Z,43.72
2022-10-23T01:07:18.098Z,41.80
2022-10-23T01:09:41.729Z,41.80
2022-10-23T01:11:52.760Z,44.05
2022-10-23T01:14:15.773Z,44.10
2022-10-23T01:16:23.955Z,37.05
2022-10-23T01:18:38.865Z,38.63
2022-10-23T01:20:46.709Z,40.22
2022-10-23T01:23:10.473Z,40.35
2022-10-23T01:25:39.475Z,44.05
2022-10-23T01:27:46.451Z,43.17
2022-10-23T01:29:59.825Z,39.72
2022-10-23T01:32:09.657Z,49.63
2022-10-23T01:36:20.608Z,45.45
2022-10-23T01:38:38.318Z,42.80
2022-10-23T01:41:02.935Z,44.28
2022-10-23T01:43:13.094Z,39.92
2022-10-23T01:45:32.636Z,43.53
2022-10-23T01:47:36.217Z,39.95
2022-10-23T01:49:40.967Z,46.95
2022-10-23T01:51:49.597Z,50.55
2022-10-23T01:53:55.849Z,45.30
2022-10-23T01:55:59.605Z,46.53
2022-10-23T01:58:02.953Z,49.03
2022-10-23T02:00:11.737Z,47.80
2022-10-23T02:02:14.696Z,52.53
2022-10-23T02:04:23.958Z,55.22
2022-10-23T02:06:25.605Z,49.45
2022-10-23T02:08:27.736Z,48.63
2022-10-23T02:10:52.596Z,48.03
2022-10-23T02:13:13.096Z,48.75
2022-10-23T02:15:14.505Z,49.67
2022-10-23T02:17:41.258Z,50.03
2022-10-23T02:19:50.393Z,53.47
2022-10-23T02:21:59.729Z,50.70
2022-10-23T02:24:05.328Z,49.67
2022-10-23T02:26:14.650Z,55.63
2022-10-23T02:28:19.920Z,46.60
2022-10-23T02:30:21.729Z,53.63
2022-10-23T02:32:26.420Z,51.70
2022-10-23T02:34:28.095Z,57.47
2022-10-23T02:36:29.974Z,53.78
2022-10-23T02:38:33.775Z,53.30
2022-10-23T02:40:46.045Z,51.05
2022-10-23T02:43:22.991Z,52.45
2022-10-23T02:45:37.340Z,54.65
2022-10-23T02:47:46.673Z,50.38
2022-10-23T02:50:10.057Z,52.88
2022-10-23T02:52:23.062Z,47.90
2022-10-23T02:54:30.461Z,53.33
2022-10-23T02:57:16.289Z,49.67
2022-10-23T02:59:36.097Z,53.05
2022-10-23T03:02:09.361Z,54.45
2022-10-23T03:04:12.095Z,53.70
2022-10-23T03:06:13.791Z,46.97
2022-10-23T03:08:15.678Z,54.03
2022-10-23T03:10:17.177Z,51.47
2022-10-23T03:12:18.698Z,55.35
2022-10-23T03:14:20.202Z,48.35
2022-10-23T03:16:21.769Z,50.92
2022-10-23T03:18:23.228Z,52.00
2022-10-23T03:20:24.879Z,45.30
2022-10-23T03:22:26.519Z,44.65
2022-10-23T03:24:28.013Z,43.15
2022-10-23T03:26:29.629Z,44.67
2022-10-23T03:28:31.102Z,49.33
2022-10-23T03:30:32.660Z,54.58
2022-10-23T03:32:34.146Z,56.08
2022-10-23T03:34:35.679Z,47.03
2022-10-23T03:36:38.171Z,55.70
2022-10-23T03:38:39.845Z,49.38
2022-10-23T03:40:42.306Z,57.45
2022-10-23T03:42:43.895Z,61.60
2022-10-23T03:44:45.439Z,52.42
2022-10-23T03:46:46.987Z,52.05
2022-10-23T03:48:48.421Z,47.22
2022-10-23T03:50:49.895Z,54.00
2022-10-23T03:52:51.424Z,50.40
2022-10-23T03:54:52.855Z,43.85
2022-10-23T03:56:57.392Z,52.35
2022-10-23T03:58:59.332Z,56.75
2022-10-23T04:01:00.931Z,63.55
2022-10-23T04:03:02.535Z,50.22
2022-10-23T04:05:04.205Z,62.80
2022-10-23T04:07:05.839Z,66.70
2022-10-23T04:09:07.879Z,66.18
2022-10-23T04:11:09.523Z,65.80
2022-10-23T04:13:11.048Z,69.57
2022-10-23T04:15:12.621Z,65.85
2022-10-23T04:17:14.171Z,59.30
2022-10-23T04:19:17.195Z,61.90
2022-10-23T04:21:19.420Z,70.38
2022-10-23T04:23:20.960Z,55.70
2022-10-23T04:25:22.416Z,68.10
2022-10-23T04:27:23.962Z,64.43
2022-10-23T04:29:25.728Z,65.45
2022-10-23T04:31:27.321Z,55.83
2022-10-23T04:33:28.980Z,52.85
2022-10-23T04:35:30.563Z,50.05
2022-10-23T04:37:32.068Z,52.17
2022-10-23T04:39:33.658Z,50.80
2022-10-23T04:41:35.128Z,52.40
2022-10-23T04:43:37.032Z,51.20
2022-10-23T04:45:38.497Z,50.72
2022-10-23T04:47:39.957Z,54.25
2022-10-23T04:49:41.410Z,55.13
2022-10-23T04:51:42.871Z,57.10
2022-10-23T04:53:44.345Z,53.78
2022-10-23T04:55:53.978Z,62.55
2022-10-23T04:57:55.456Z,52.13
2022-10-23T04:59:56.932Z,57.28
2022-10-23T05:01:58.474Z,54.97
2022-10-23T05:04:00.031Z,66.40
2022-10-23T05:06:01.479Z,63.58
2022-10-23T05:08:02.990Z,60.03
2022-10-23T05:10:06.191Z,51.38
2022-10-23T05:12:08.478Z,55.25
2022-10-23T05:14:09.996Z,60.70
2022-10-23T05:16:21.519Z,55.03
2022-10-23T05:18:38.148Z,54.97
2022-10-23T05:20:40.347Z,55.42
2022-10-23T05:22:44.528Z,52.50
2022-10-23T05:24:49.682Z,52.80
2022-10-23T05:26:53.024Z,51.92
2022-10-23T05:28:54.648Z,49.95
2022-10-23T05:30:59.112Z,50.15
2022-10-23T05:33:02.365Z,48.67
2022-10-23T05:35:09.406Z,47.58
2022-10-23T05:37:14.298Z,49.28
2022-10-23T05:39:16.339Z,47.30
2022-10-23T05:41:18.099Z,46.90
2022-10-23T05:43:19.631Z,43.08
2022-10-23T05:45:21.326Z,42.33
2022-10-23T05:47:22.824Z,47.42
2022-10-23T05:49:25.660Z,56.45
2022-10-23T05:51:27.114Z,80.78
2022-10-23T05:53:28.636Z,66.57
2022-10-23T05:55:30.148Z,54.15
2022-10-23T05:57:34.986Z,56.60
2022-10-23T05:59:36.484Z,43.58
2022-10-23T06:01:38.247Z,97.57
2022-10-23T06:03:40.686Z,39.47
2022-10-23T06:05:42.119Z,46.70
2022-10-23T06:07:44.056Z,45.08
2022-10-23T06:09:45.749Z,52.53
2022-10-23T06:11:47.529Z,50.45
2022-10-23T06:13:49.172Z,42.35
2022-10-23T06:15:50.730Z,46.22
2022-10-23T06:17:52.186Z,50.95
2022-10-23T06:19:53.757Z,64.53
2022-10-23T06:21:55.297Z,59.38
2022-10-23T06:23:56.797Z,43.70
2022-10-23T06:25:58.397Z,45.85
2022-10-23T06:27:59.868Z,47.10
2022-10-23T06:30:01.391Z,38.95
2022-10-23T06:32:02.937Z,41.55
2022-10-23T06:34:04.431Z,45.22
2022-10-23T06:36:08.301Z,41.80
2022-10-23T06:38:10.708Z,44.47
2022-10-23T06:40:12.295Z,42.33
2022-10-23T06:42:13.743Z,39.25
2022-10-23T06:44:15.226Z,42.05
2022-10-23T06:46:18.291Z,40.30
2022-10-23T06:48:19.803Z,34.72
2022-10-23T06:50:21.911Z,35.30
2022-10-23T06:52:45.231Z,37.45
2022-10-23T06:54:44.853Z,34.55
2022-10-23T06:56:46.318Z,33.67
2022-10-23T06:58:47.812Z,34.28
2022-10-23T07:00:49.387Z,33.08
2022-10-23T07:02:51.783Z,29.98
2022-10-23T07:04:53.261Z,29.90
2022-10-23T07:06:57.243Z,26.95
2022-10-23T07:08:59.657Z,23.55
2022-10-23T07:11:08.839Z,29.58
2022-10-23T07:13:11.645Z,22.65
2022-10-23T07:15:13.242Z,25.45
2022-10-23T07:17:14.698Z,20.52
2022-10-23T07:19:16.161Z,23.88
2022-10-23T07:21:17.721Z,26.98
2022-10-23T07:23:19.155Z,26.48
2022-10-23T07:25:25.561Z,28.80
2022-10-23T07:27:27.211Z,24.70
2022-10-23T07:29:28.797Z,25.13
2022-10-23T07:31:31.075Z,22.85
2022-10-23T07:33:32.529Z,23.52
2022-10-23T07:35:37.068Z,23.65
2022-10-23T07:37:40.993Z,23.60
2022-10-23T07:39:42.626Z,23.10
2022-10-23T07:41:44.049Z,19.95
2022-10-23T07:43:45.637Z,21.88
2022-10-23T07:45:48.485Z,22.10
2022-10-23T07:47:51.783Z,23.25
2022-10-23T07:49:53.250Z,20.88
2022-10-23T07:51:54.826Z,21.10
2022-10-23T07:53:56.438Z,18.00
2022-10-23T07:56:04.106Z,15.88
2022-10-23T07:58:05.622Z,17.02
2022-10-23T08:00:07.697Z,16.30
2022-10-23T08:02:11.625Z,17.13
2022-10-23T08:04:13.216Z,18.05
2022-10-23T08:06:14.906Z,17.42
2022-10-23T08:08:16.442Z,18.25
2022-10-23T08:10:17.922Z,17.23
2022-10-23T08:12:19.388Z,17.75
2022-10-23T08:14:20.907Z,17.80
2022-10-23T08:16:23.351Z,18.40
2022-10-23T08:18:24.805Z,16.77
2022-10-23T08:20:26.321Z,15.85
2022-10-23T08:22:27.849Z,17.88
2022-10-23T08:24:29.754Z,15.65
2022-10-23T08:26:31.510Z,16.75
2022-10-23T08:28:33.327Z,17.23
2022-10-23T08:30:35.625Z,19.42
2022-10-23T08:32:37.071Z,15.00
2022-10-23T08:34:38.609Z,15.50
2022-10-23T08:36:40.298Z,17.23
2022-10-23T08:38:41.773Z,24.40
2022-10-23T08:40:47.616Z,24.45
2022-10-23T08:43:03.221Z,20.23
2022-10-23T08:45:21.408Z,24.00
2022-10-23T08:47:33.813Z,18.60
2022-10-23T08:49:49.350Z,16.83
2022-10-23T08:51:55.168Z,26.67
2022-10-23T08:54:02.850Z,33.03
2022-10-23T08:56:17.812Z,25.30
2022-10-23T08:58:29.553Z,15.05
2022-10-23T09:00:31.574Z,16.00
2022-10-23T09:02:33.987Z,13.27
2022-10-23T09:04:35.572Z,13.50
2022-10-23T09:06:43.644Z,11.88
2022-10-23T09:08:59.383Z,12.20
2022-10-23T09:11:14.727Z,9.95
2022-10-23T09:13:34.946Z,13.27
2022-10-23T09:15:46.826Z,10.73
2022-10-23T09:17:54.072Z,9.48
2022-10-23T09:20:13.575Z,11.68
2022-10-23T09:24:21.101Z,20.55
2022-10-23T09:26:23.246Z,13.05
2022-10-23T09:28:27.933Z,11.32
2022-10-23T09:30:40.941Z,13.05
2022-10-23T09:32:43.504Z,13.13
2022-10-23T09:34:54.251Z,13.88
2022-10-23T09:37:04.648Z,14.90
2022-10-23T09:39:28.350Z,14.48
2022-10-23T09:41:38.706Z,11.57
2022-10-23T09:43:40.181Z,11.82
2022-10-23T09:45:42.652Z,13.90
2022-10-23T09:47:44.404Z,9.05
2022-10-23T09:49:54.042Z,13.55
2022-10-23T09:52:18.012Z,10.88
2022-10-23T09:54:24.103Z,12.77
2022-10-23T09:56:40.884Z,16.23
2022-10-23T09:59:03.233Z,12.40
2022-10-23T10:01:05.763Z,22.40
2022-10-23T10:03:18.955Z,24.45
2022-10-23T10:05:24.961Z,26.35
2022-10-23T10:07:31.159Z,20.33
2022-10-23T10:09:34.960Z,19.23
2022-10-23T10:11:48.508Z,15.73
2022-10-23T10:14:17.084Z,18.52
2022-10-23T10:16:29.016Z,12.95
2022-10-23T10:18:39.698Z,16.15
2022-10-23T10:21:01.616Z,13.57
2022-10-23T10:23:11.537Z,16.63
2022-10-23T10:25:36.115Z,15.27
2022-10-23T10:27:48.051Z,13.57
2022-10-23T10:29:52.656Z,10.95
2022-10-23T10:32:27.412Z,11.82
2022-10-23T10:34:49.595Z,13.38
2022-10-23T10:36:54.938Z,11.70
2022-10-23T10:39:05.506Z,14.75
2022-10-23T10:41:35.653Z,11.20
2022-10-23T10:43:47.826Z,9.80
2022-10-23T10:45:56.326Z,11.80
2022-10-23T10:48:23.325Z,11.83
2022-10-23T10:50:51.638Z,17.52
2022-10-23T10:53:07.474Z,12.85
2022-10-23T10:55:12.275Z,12.40
2022-10-23T10:57:34.788Z,11.13
2022-10-23T10:59:41.779Z,12.23
2022-10-23T11:01:54.141Z,14.13
2022-10-23T11:04:04.195Z,13.15
2022-10-23T11:06:12.920Z,12.18
2022-10-23T11:08:22.355Z,11.40
2022-10-23T11:10:24.045Z,15.00
2022-10-23T11:12:28.006Z,18.23
2022-10-23T11:14:33.095Z,16.75
2022-10-23T11:16:39.532Z,14.48
2022-10-23T11:19:01.361Z,17.30
2022-10-23T11:21:10.533Z,12.90
2022-10-23T11:23:30.646Z,14.63
2022-10-23T11:25:44.069Z,13.02
2022-10-23T11:27:56.546Z,12.68
2022-10-23T11:30:19.329Z,17.10
2022-10-23T11:32:58.444Z,23.55
2022-10-23T11:35:14.191Z,19.98
2022-10-23T11:37:17.924Z,22.80
2022-10-23T11:39:29.559Z,16.23
2022-10-23T11:41:34.006Z,16.40
2022-10-23T11:44:01.336Z,14.75
2022-10-23T11:46:30.192Z,13.93
2022-10-23T11:48:40.643Z,11.90
2022-10-23T11:50:45.150Z,12.70
2022-10-23T11:53:18.245Z,13.05
2022-10-23T11:55:24.333Z,12.27
2022-10-23T11:57:25.812Z,16.77
2022-10-23T11:59:32.745Z,16.60
2022-10-23T12:01:40.192Z,14.18
2022-10-23T12:04:11.427Z,11.15
2022-10-23T12:06:23.796Z,13.10
2022-10-23T12:08:28.293Z,12.68
2022-10-23T12:10:36.769Z,13.23
2022-10-23T12:12:43.213Z,14.00
2022-10-23T12:14:50.438Z,16.75
2022-10-23T12:16:52.001Z,13.45
2022-10-23T12:18:54.141Z,13.90
2022-10-23T12:21:00.619Z,16.50
2022-10-23T12:23:23.984Z,15.30
2022-10-23T12:25:49.800Z,15.18
2022-10-23T12:28:06.966Z,17.15
2022-10-23T12:30:21.084Z,12.10
2022-10-23T12:32:37.914Z,14.43
2022-10-23T12:35:05.811Z,13.23
2022-10-23T12:37:12.416Z,13.40
2022-10-23T12:39:27.957Z,11.57
2022-10-23T12:41:32.836Z,11.88
2022-10-23T12:43:37.672Z,11.93
2022-10-23T12:45:40.767Z,12.55
2022-10-23T12:47:47.520Z,13.45
2022-10-23T12:49:50.336Z,12.38
2022-10-23T12:52:06.195Z,14.75
2022-10-23T12:54:19.424Z,20.27
2022-10-23T12:56:22.078Z,17.33
2022-10-23T12:58:30.710Z,17.20
2022-10-23T13:00:32.285Z,15.10
2022-10-23T13:02:34.420Z,14.35
2022-10-23T13:04:36.980Z,12.57
2022-10-23T13:06:39.532Z,13.10
2022-10-23T13:08:44.352Z,14.15
2022-10-23T13:10:47.602Z,22.13
2022-10-23T13:12:59.633Z,11.93
2022-10-23T13:15:06.879Z,14.05
2022-10-23T13:17:11.758Z,13.48
2022-10-23T13:19:24.368Z,14.73
2022-10-23T13:21:29.096Z,13.75
2022-10-23T13:23:33.423Z,12.45
2022-10-23T13:25:36.772Z,12.00
2022-10-23T13:27:38.372Z,15.40
2022-10-23T13:29:42.064Z,16.20
2022-10-23T13:31:43.588Z,12.27
2022-10-23T13:33:47.882Z,13.70
2022-10-23T13:35:57.736Z,15.05
2022-10-23T13:38:08.347Z,13.32
2022-10-23T13:40:25.727Z,16.67
2022-10-23T13:42:27.241Z,15.85
2022-10-23T13:44:29.030Z,12.55
2022-10-23T13:46:31.263Z,13.52
2022-10-23T13:48:32.780Z,11.50
2022-10-23T13:50:34.253Z,11.18
2022-10-23T13:52:35.740Z,16.20
2022-10-23T13:54:37.184Z,13.05
2022-10-23T13:56:38.965Z,19.25
2022-10-23T13:58:41.209Z,14.68
2022-10-23T14:00:46.051Z,13.40
2022-10-23T14:02:47.644Z,15.05
2022-10-23T14:04:50.231Z,17.92
2022-10-23T14:06:58.322Z,19.13
2022-10-23T14:09:00.044Z,42.05
2022-10-23T14:11:01.606Z,34.42
2022-10-23T14:13:03.198Z,16.30
2022-10-23T14:15:04.974Z,19.10
2022-10-23T14:17:06.481Z,14.90
2022-10-23T14:19:08.604Z,16.30
2022-10-23T14:21:13.696Z,18.90
2022-10-23T14:23:15.251Z,15.38
2022-10-23T14:25:16.871Z,20.85
2022-10-23T14:27:18.449Z,23.23
2022-10-23T14:29:24.496Z,19.33
2022-10-23T14:31:26.839Z,24.25
2022-10-23T14:33:28.328Z,26.25
2022-10-23T14:35:29.888Z,28.67
2022-10-23T14:37:31.551Z,23.92
2022-10-23T14:39:33.114Z,27.42
2022-10-23T14:41:34.630Z,23.38
2022-10-23T14:43:36.116Z,27.30
2022-10-23T14:45:37.619Z,27.35
2022-10-23T14:47:39.127Z,31.10
2022-10-23T14:49:41.226Z,30.27
2022-10-23T14:51:42.824Z,20.33
2022-10-23T14:53:44.419Z,19.98
2022-10-23T14:55:45.881Z,20.35
2022-10-23T14:57:47.329Z,21.13
2022-10-23T14:59:49.556Z,22.95
2022-10-23T15:01:51.193Z,24.63
2022-10-23T15:03:55.824Z,18.92
2022-10-23T15:05:57.394Z,21.15
2022-10-23T15:07:59.427Z,19.33
2022-10-23T15:10:00.901Z,20.05
2022-10-23T15:12:04.561Z,22.50
2022-10-23T15:14:06.234Z,23.30
2022-10-23T15:16:10.161Z,27.58
2022-10-23T15:18:11.815Z,22.85
2022-10-23T15:20:13.333Z,22.98
2022-10-23T15:22:14.826Z,32.05
2022-10-23T15:24:17.388Z,29.88
2022-10-23T15:26:22.820Z,28.35
2022-10-23T15:28:24.780Z,30.33
2022-10-23T15:30:26.503Z,31.73
2022-10-23T15:32:27.991Z,33.97
2022-10-23T15:34:30.238Z,33.35
2022-10-23T15:36:32.015Z,33.42
2022-10-23T15:38:33.504Z,26.42
2022-10-23T15:40:35.061Z,29.17
2022-10-23T15:42:36.593Z,32.13
2022-10-23T15:44:40.267Z,33.78
2022-10-23T15:46:42.074Z,32.88
2022-10-23T15:48:43.580Z,36.25
2022-10-23T15:50:45.084Z,41.60
2022-10-23T15:52:46.768Z,39.75
2022-10-23T15:54:48.356Z,55.03
2022-10-23T15:56:52.266Z,62.70
2022-10-23T15:58:53.736Z,68.43
2022-10-23T16:00:55.297Z,70.20
2022-10-23T16:02:56.860Z,80.22
2022-10-23T16:04:58.372Z,65.55
2022-10-23T16:06:59.820Z,45.38
2022-10-23T16:09:01.688Z,52.00
2022-10-23T16:11:04.078Z,56.72
2022-10-23T16:13:05.564Z,74.93
2022-10-23T16:15:08.326Z,80.63
2022-10-23T16:17:10.614Z,76.93
2022-10-23T16:19:12.657Z,65.50
2022-10-23T16:21:23.194Z,124.50
2022-10-23T16:23:24.659Z,128.63
2022-10-23T16:25:26.173Z,121.50
2022-10-23T16:27:27.793Z,135.43
2022-10-23T16:29:29.627Z,117.85
2022-10-23T16:31:31.771Z,116.28
2022-10-23T16:33:33.211Z,151.07
2022-10-23T16:35:34.717Z,153.23
2022-10-23T16:37:36.209Z,157.13
2022-10-23T16:39:38.069Z,228.63
2022-10-23T16:41:39.691Z,158.50
2022-10-23T16:43:41.475Z,175.93
2022-10-23T16:45:43.018Z,179.27
2022-10-23T16:47:44.490Z,180.65
2022-10-23T16:49:45.949Z,190.98
2022-10-23T16:51:47.460Z,197.40
2022-10-23T16:53:49.504Z,152.00
2022-10-23T16:55:51.100Z,145.75
2022-10-23T16:57:52.648Z,157.98
2022-10-23T16:59:54.934Z,90.03
2022-10-23T17:01:56.506Z,89.45
2022-10-23T17:03:58.085Z,338.30
2022-10-23T17:06:01.667Z,239.43
2022-10-23T17:08:03.862Z,358.08
2022-10-23T17:10:05.786Z,184.40
2022-10-23T17:12:07.638Z,312.77
2022-10-23T17:14:15.370Z,334.33
2022-10-23T17:16:26.565Z,234.02
2022-10-23T17:18:28.050Z,226.75
2022-10-23T17:20:29.668Z,180.05
2022-10-23T17:22:31.227Z,127.18
2022-10-23T17:24:32.658Z,180.23
2022-10-23T17:26:34.657Z,124.18
2022-10-23T17:28:41.671Z,151.32
2022-10-23T17:30:43.209Z,217.45
2022-10-23T17:32:44.978Z,387.55
2022-10-23T17:34:46.680Z,159.80
2022-10-23T17:36:53.664Z,276.08
2022-10-23T17:38:55.374Z,175.75
2022-10-23T17:40:56.911Z,163.05
2022-10-23T17:42:59.606Z,148.85
2022-10-23T17:45:01.255Z,181.38
2022-10-23T17:47:02.738Z,153.90
2022-10-23T17:49:05.305Z,102.18
2022-10-23T17:51:18.745Z,200.82
2022-10-23T17:53:20.185Z,165.73
2022-10-23T17:55:21.736Z,123.30
2022-10-23T17:59:29.638Z,108.95
2022-10-23T18:01:31.762Z,111.50
2022-10-23T18:03:34.565Z,122.38
2022-10-23T18:05:36.156Z,104.32
2022-10-23T18:07:37.820Z,87.03
2022-10-23T18:09:39.487Z,120.97
2022-10-23T18:11:46.853Z,188.45
2022-10-23T18:13:50.637Z,170.55
2022-10-23T18:15:52.199Z,302.25
2022-10-23T18:17:53.921Z,286.67
2022-10-23T18:19:59.578Z,233.45
2022-10-23T18:22:03.931Z,161.35
2022-10-23T18:24:05.765Z,384.88
2022-10-23T18:26:18.437Z,231.82
2022-10-23T18:28:20.531Z,265.30
2022-10-23T18:30:22.082Z,175.27
2022-10-23T18:32:23.814Z,119.95
2022-10-23T18:34:25.657Z,131.40
2022-10-23T18:36:30.578Z,130.50
2022-10-23T18:38:32.030Z,422.23
2022-10-23T18:40:34.552Z,850.20
2022-10-23T18:42:36.110Z,629.25
2022-10-23T18:44:38.244Z,1071.38
2022-10-23T18:46:39.774Z,447.98
2022-10-23T18:48:42.249Z,437.02
2022-10-23T18:50:43.687Z,269.40
2022-10-23T18:52:45.454Z,241.65
2022-10-23T18:54:46.905Z,288.58
2022-10-23T18:56:49.064Z,298.20
2022-10-23T18:58:52.094Z,389.38
2022-10-23T19:00:53.549Z,385.35
2022-10-23T19:02:55.171Z,247.35
2022-10-23T19:04:56.688Z,507.65
2022-10-23T19:06:58.182Z,644.17
2022-10-23T19:08:59.654Z,274.35
2022-10-23T19:11:01.235Z,223.05
2022-10-23T19:13:02.794Z,203.65
2022-10-23T19:15:04.515Z,265.75
2022-10-23T19:17:22.815Z,206.05
2022-10-23T19:19:31.708Z,193.63
2022-10-23T19:21:36.993Z,189.75
2022-10-23T19:23:41.031Z,173.20
2022-10-23T19:25:45.289Z,166.95
2022-10-23T19:27:47.723Z,194.68
2022-10-23T19:29:51.331Z,234.95
2022-10-23T19:31:53.587Z,136.88
2022-10-23T19:33:55.299Z,362.90
2022-10-23T19:35:56.769Z,256.35
2022-10-23T19:37:58.228Z,434.77
2022-10-23T19:39:59.855Z,315.63
2022-10-23T19:42:01.358Z,244.55
2022-10-23T19:44:02.855Z,189.63
2022-10-23T19:46:07.865Z,206.38
2022-10-23T19:48:12.638Z,170.60
2022-10-23T19:50:14.186Z,176.90
2022-10-23T19:52:15.653Z,220.77
2022-10-23T19:54:17.167Z,176.93
2022-10-23T19:56:18.703Z,174.85
2022-10-23T19:58:20.209Z,147.32
2022-10-23T20:00:21.933Z,139.57
2022-10-23T20:02:23.534Z,101.10
2022-10-23T20:04:25.365Z,121.85
2022-10-23T20:06:29.688Z,100.47
2022-10-23T20:08:34.253Z,97.85
2022-10-23T20:10:44.133Z,99.35
2022-10-23T20:12:51.615Z,101.60
2022-10-23T20:15:04.312Z,133.05
2022-10-23T20:17:05.861Z,138.85
2022-10-23T20:19:10.312Z,117.03
2022-10-23T20:21:12.074Z,83.60
2022-10-23T20:23:13.524Z,72.65
2022-10-23T20:25:15.101Z,70.60
2022-10-23T20:27:18.536Z,70.05
2022-10-23T20:29:20.796Z,79.38
2022-10-23T20:31:24.793Z,90.78
2022-10-23T20:33:26.253Z,111.50
2022-10-23T20:35:27.773Z,105.20
2022-10-23T20:37:29.207Z,101.97
2022-10-23T20:39:33.378Z,97.22
2022-10-23T20:41:37.196Z,126.00
2022-10-23T20:43:38.705Z,103.00
2022-10-23T20:45:40.129Z,120.30
2022-10-23T20:47:41.837Z,117.43
2022-10-23T20:49:43.572Z,104.18
2022-10-23T20:51:45.485Z,103.63
2022-10-23T20:53:48.192Z,95.03
2022-10-23T20:55:49.776Z,98.50
2022-10-23T20:57:51.274Z,95.00
2022-10-23T20:59:53.344Z,101.53
2022-10-23T21:01:56.236Z,92.43
2022-10-23T21:04:00.409Z,96.50
2022-10-23T21:06:11.062Z,108.68
2022-10-23T21:08:12.573Z,111.95
2022-10-23T21:10:14.027Z,116.68
2022-10-23T21:12:15.628Z,105.57
2022-10-23T21:14:17.153Z,110.85
2022-10-23T21:16:26.074Z,120.35
2022-10-23T21:18:45.413Z,114.10
2022-10-23T21:20:47.811Z,110.95
2022-10-23T21:22:53.639Z,103.25
2022-10-23T21:24:56.975Z,117.55
2022-10-23T21:26:58.481Z,125.13
2022-10-23T21:29:18.072Z,121.35
2022-10-23T21:31:21.749Z,116.15
2022-10-23T21:33:23.202Z,114.72
2022-10-23T21:35:27.778Z,129.70
2022-10-23T21:37:31.524Z,131.60
2022-10-23T21:39:33.419Z,122.85
2022-10-23T21:41:34.962Z,113.78
2022-10-23T21:43:36.596Z,115.20
2022-10-23T21:45:38.135Z,151.30
2022-10-23T21:47:39.744Z,139.80
2022-10-23T21:49:41.239Z,124.85
2022-10-23T21:51:42.740Z,120.57
2022-10-23T21:53:44.310Z,118.55
2022-10-23T21:55:45.801Z,115.88
2022-10-23T21:57:47.243Z,126.03
2022-10-23T21:59:48.890Z,115.30
2022-10-23T22:01:51.718Z,125.78
2022-10-23T22:03:54.228Z,122.78
2022-10-23T22:05:57.923Z,138.55
2022-10-23T22:07:59.631Z,154.15
2022-10-23T22:10:01.472Z,159.35
2022-10-23T22:12:02.981Z,154.23
2022-10-23T22:14:04.588Z,141.57
2022-10-23T22:16:06.220Z,145.75
2022-10-23T22:18:07.764Z,149.18
2022-10-23T22:20:09.452Z,138.07
2022-10-23T22:22:11.101Z,141.88
2022-10-23T22:24:12.535Z,137.60
2022-10-23T22:26:35.760Z,148.77
2022-10-23T22:28:37.328Z,164.00
2022-10-23T22:30:38.797Z,150.38
2022-10-23T22:32:40.395Z,154.75
2022-10-23T22:34:52.412Z,152.35
2022-10-23T22:36:55.071Z,152.73
2022-10-23T22:38:56.854Z,157.93
2022-10-23T22:41:02.362Z,155.50
2022-10-23T22:43:04.023Z,147.77
2022-10-23T22:45:06.090Z,140.68
2022-10-23T22:47:07.692Z,155.18
2022-10-23T22:49:09.553Z,150.65
2022-10-23T22:51:13.572Z,158.93
2022-10-23T22:53:16.736Z,167.05
2022-10-23T22:55:18.285Z,162.27
2022-10-23T22:57:19.827Z,152.68
2022-10-23T22:59:21.333Z,161.35
2022-10-23T23:01:33.954Z,169.32
2022-10-23T23:03:36.598Z,170.15
2022-10-23T23:05:45.885Z,153.82
2022-10-23T23:07:47.459Z,125.35
2022-10-23T23:09:49.065Z,174.18
2022-10-23T23:11:52.603Z,169.52
2022-10-23T23:13:54.354Z,162.13
2022-10-23T23:15:56.492Z,151.82
2022-10-23T23:17:58.306Z,155.25
2022-10-23T23:19:59.781Z,154.10
2022-10-23T23:22:02.545Z,155.77
2022-10-23T23:24:04.225Z,163.05
2022-10-23T23:26:07.063Z,166.20
2022-10-23T23:28:08.851Z,166.52
2022-10-23T23:30:10.720Z,163.82
2022-10-23T23:32:12.273Z,169.70
2022-10-23T23:34:13.768Z,165.48
2022-10-23T23:36:19.689Z,165.88
2022-10-23T23:38:21.116Z,157.55
2022-10-23T23:40:22.799Z,154.65
2022-10-23T23:42:24.441Z,145.27
2022-10-23T23:44:25.924Z,145.05
2022-10-23T23:46:27.392Z,145.30
2022-10-23T23:48:29.006Z,141.98
2022-10-23T23:50:30.508Z,130.73
2022-10-23T23:52:31.965Z,136.43
2022-10-23T23:54:33.598Z,128.48
2022-10-23T23:56:35.102Z,135.98
2022-10-23T23:58:36.688Z,134.77
